Time,TemperatureF,DewpointF,PressureIn,WindDirection,WindDirectionDegrees,WindSpeedMPH,WindSpeedGustMPH,Humidity,HourlyPrecipIn,Conditions,Clouds,dailyrainin,SoftwareType,DateUTC
2013-08-18 00:05:00,66.0,66.0,30.12,NW,315,0.0,0.0,98,0.00,,,0.00,weatherlink.com 1.10,2013-08-18 04:05:00,
2013-08-18 00:20:00,66.0,66.0,30.12,NW,315,0.0,0.0,98,0.00,,,0.00,weatherlink.com 1.10,2013-08-18 04:20:00,
2013-08-18 00:35:00,65.9,65.0,30.12,NW,315,0.0,0.0,98,0.00,,,0.00,weatherlink.com 1.10,2013-08-18 04:35:00,
2013-08-18 00:50:00,65.9,65.0,30.12,NW,315,0.0,0.0,98,0.00,,,0.00,weatherlink.com 1.10,2013-08-18 04:50:00,
2013-08-18 01:05:00,65.8,65.0,30.11,NW,315,0.0,0.0,98,0.01,,,0.01,weatherlink.com 1.10,2013-08-18 05:05:00,
2013-08-18 01:20:00,65.8,65.0,30.11,NW,315,0.0,0.0,98,0.01,,,0.01,weatherlink.com 1.10,2013-08-18 05:20:00,
2013-08-18 01:35:00,65.6,65.0,30.11,NW,315,0.0,0.0,98,0.01,,,0.01,weatherlink.com 1.10,2013-08-18 05:35:00,
2013-08-18 01:50:00,65.7,65.0,30.11,NW,315,0.0,0.0,98,0.01,,,0.01,weatherlink.com 1.10,2013-08-18 05:50:00,
2013-08-18 02:05:00,65.7,65.0,30.11,NW,315,0.0,0.0,98,0.00,,,0.01,weatherlink.com 1.10,2013-08-18 06:05:00,
2013-08-18 02:20:00,65.6,65.0,30.09,NW,315,0.0,0.0,98,0.00,,,0.01,weatherlink.com 1.10,2013-08-18 06:20:00,
2013-08-18 02:35:00,65.6,65.0,30.09,NW,315,0.0,0.0,98,0.00,,,0.01,weatherlink.com 1.10,2013-08-18 06:35:00,
2013-08-18 02:50:00,65.6,65.0,30.09,NW,315,0.0,0.0,98,0.00,,,0.01,weatherlink.com 1.10,2013-08-18 06:50:00,
2013-08-18 03:05:00,65.6,65.0,30.09,NW,315,0.0,0.0,98,0.00,,,0.01,weatherlink.com 1.10,2013-08-18 07:05:00,
2013-08-18 03:20:00,65.6,65.0,30.09,NW,315,0.0,0.0,98,0.00,,,0.01,weatherlink.com 1.10,2013-08-18 07:20:00,
2013-08-18 03:35:00,65.7,65.0,30.09,NW,315,0.0,0.0,98,0.00,,,0.01,weatherlink.com 1.10,2013-08-18 07:35:00,
2013-08-18 03:50:00,65.7,65.0,30.09,NW,315,0.0,0.0,98,0.00,,,0.01,weatherlink.com 1.10,2013-08-18 07:50:00,
2013-08-18 04:05:00,65.6,65.0,30.09,NW,315,0.0,0.0,98,0.00,,,0.01,weatherlink.com 1.10,2013-08-18 08:05:00,
2013-08-18 04:20:00,65.6,65.0,30.10,NW,315,0.0,0.0,98,0.00,,,0.01,weatherlink.com 1.10,2013-08-18 08:20:00,
2013-08-18 04:35:00,65.8,65.0,30.09,NW,325,0.0,0.0,98,0.00,,,0.01,weatherlink.com 1.10,2013-08-18 08:35:00,
2013-08-18 04:50:00,65.8,65.0,30.09,NNW,338,0.0,0.0,98,0.00,,,0.01,weatherlink.com 1.10,2013-08-18 08:50:00,
2013-08-18 05:05:00,65.7,65.0,30.10,NNW,338,0.0,0.0,98,0.00,,,0.01,weatherlink.com 1.10,2013-08-18 09:05:00,
2013-08-18 05:20:00,65.7,65.0,30.10,NNW,338,0.0,0.0,98,0.00,,,0.01,weatherlink.com 1.10,2013-08-18 09:20:00,
2013-08-18 05:35:00,65.8,65.0,30.10,NNW,338,0.0,0.0,98,0.00,,,0.01,weatherlink.com 1.10,2013-08-18 09:35:00,
2013-08-18 05:50:00,66.0,66.0,30.10,NNW,339,0.0,0.0,98,0.00,,,0.01,weatherlink.com 1.10,2013-08-18 09:50:00,
2013-08-18 06:05:00,65.9,65.0,30.11,NNW,339,0.0,0.0,98,0.00,,,0.01,weatherlink.com 1.10,2013-08-18 10:05:00,
2013-08-18 06:20:00,65.8,65.0,30.11,NNW,339,0.0,0.0,98,0.00,,,0.01,weatherlink.com 1.10,2013-08-18 10:20:00,
2013-08-18 06:35:00,65.8,65.0,30.11,NNW,339,0.0,0.0,98,0.00,,,0.01,weatherlink.com 1.10,2013-08-18 10:35:00,
2013-08-18 06:50:00,65.7,65.0,30.11,NNW,339,0.0,0.0,98,0.00,,,0.01,weatherlink.com 1.10,2013-08-18 10:50:00,
2013-08-18 07:05:00,65.6,65.0,30.12,NNW,339,0.0,0.0,98,0.00,,,0.01,weatherlink.com 1.10,2013-08-18 11:05:00,
2013-08-18 07:20:00,65.8,65.0,30.12,NNW,339,0.0,0.0,98,0.00,,,0.01,weatherlink.com 1.10,2013-08-18 11:20:00,
2013-08-18 07:35:00,65.9,65.0,30.12,NNW,339,0.0,0.0,98,0.00,,,0.01,weatherlink.com 1.10,2013-08-18 11:35:00,
2013-08-18 07:50:00,66.1,66.0,30.13,NNW,339,0.0,0.0,98,0.00,,,0.01,weatherlink.com 1.10,2013-08-18 11:50:00,
2013-08-18 08:05:00,66.3,66.0,30.14,NNW,339,0.0,0.0,98,0.00,,,0.01,weatherlink.com 1.10,2013-08-18 12:05:00,
2013-08-18 08:20:00,66.4,66.0,30.14,NNW,338,0.0,0.0,98,0.01,,,0.02,weatherlink.com 1.10,2013-08-18 12:20:00,
2013-08-18 08:35:00,66.1,66.0,30.15,NNW,338,0.0,0.0,98,0.02,,,0.03,weatherlink.com 1.10,2013-08-18 12:35:00,
2013-08-18 08:50:00,66.3,66.0,30.15,NNW,339,0.0,0.0,98,0.02,,,0.03,weatherlink.com 1.10,2013-08-18 12:50:00,
2013-08-18 09:05:00,66.3,66.0,30.15,NNW,339,0.0,0.0,98,0.03,,,0.04,weatherlink.com 1.10,2013-08-18 13:05:00,
2013-08-18 09:20:00,66.3,66.0,30.15,NNW,339,0.0,0.0,98,0.06,,,0.08,weatherlink.com 1.10,2013-08-18 13:20:00,
2013-08-18 09:35:00,66.5,66.0,30.16,NNW,339,0.0,0.0,98,0.07,,,0.10,weatherlink.com 1.10,2013-08-18 13:35:00,
2013-08-18 09:50:00,66.6,66.0,30.16,NNW,339,0.0,0.0,98,0.11,,,0.14,weatherlink.com 1.10,2013-08-18 13:50:00,
2013-08-18 10:06:00,66.6,66.0,30.16,NNW,339,0.0,0.0,98,0.14,,,0.19,weatherlink.com 1.10,2013-08-18 14:06:00,
2013-08-18 10:20:00,66.8,66.0,30.16,NNW,337,0.0,1.0,98,0.19,,,0.27,weatherlink.com 1.10,2013-08-18 14:20:00,
2013-08-18 10:35:00,67.1,67.0,30.16,NNW,337,0.0,0.0,98,0.19,,,0.29,weatherlink.com 1.10,2013-08-18 14:35:00,
2013-08-18 10:50:00,67.5,67.0,30.17,NNW,337,0.0,0.0,98,0.15,,,0.29,weatherlink.com 1.10,2013-08-18 14:50:00,
2013-08-18 11:05:00,67.6,67.0,30.17,NW,309,0.0,1.0,98,0.10,,,0.29,weatherlink.com 1.10,2013-08-18 15:05:00,
2013-08-18 11:20:00,68.5,68.0,30.17,West,271,0.0,3.0,98,0.02,,,0.29,weatherlink.com 1.10,2013-08-18 15:20:00,
2013-08-18 11:35:00,69.9,69.0,30.16,East,85,0.0,4.0,96,0.00,,,0.29,weatherlink.com 1.10,2013-08-18 15:35:00,
2013-08-18 11:52:00,71.3,69.0,30.16,SSW,200,0.0,1.0,92,0.00,,,0.29,weatherlink.com 1.10,2013-08-18 15:52:00,
2013-08-18 12:06:00,71.3,69.0,30.15,SSW,199,1.0,1.0,91,0.00,,,0.29,weatherlink.com 1.10,2013-08-18 16:06:00,
2013-08-18 12:21:00,73.8,70.0,30.15,ENE,68,0.0,2.0,87,0.00,,,0.29,weatherlink.com 1.10,2013-08-18 16:21:00,
2013-08-18 12:36:00,74.4,69.0,30.15,ENE,73,1.0,2.0,84,0.00,,,0.29,weatherlink.com 1.10,2013-08-18 16:36:00,
2013-08-18 12:51:00,75.3,70.0,30.15,ESE,104,3.0,3.0,83,0.00,,,0.29,weatherlink.com 1.10,2013-08-18 16:51:00,
2013-08-18 13:06:00,75.8,70.0,30.14,ESE,110,0.0,6.0,83,0.00,,,0.29,weatherlink.com 1.10,2013-08-18 17:06:00,
2013-08-18 13:21:00,76.7,71.0,30.15,WNW,287,0.0,2.0,81,0.00,,,0.29,weatherlink.com 1.10,2013-08-18 17:21:00,
2013-08-18 13:36:00,75.6,69.0,30.14,ESE,103,0.0,1.0,80,0.00,,,0.29,weatherlink.com 1.10,2013-08-18 17:36:00,
2013-08-18 13:52:00,74.9,70.0,30.14,WSW,250,0.0,1.0,84,0.00,,,0.29,weatherlink.com 1.10,2013-08-18 17:52:00,
2013-08-18 14:06:00,74.3,70.0,30.14,WSW,251,0.0,0.0,85,0.00,,,0.29,weatherlink.com 1.10,2013-08-18 18:06:00,
2013-08-18 14:21:00,73.8,70.0,30.15,ESE,108,0.0,1.0,88,0.00,,,0.29,weatherlink.com 1.10,2013-08-18 18:21:00,
2013-08-18 14:36:00,71.0,68.0,30.14,West,273,0.0,3.0,91,0.10,,,0.39,weatherlink.com 1.10,2013-08-18 18:36:00,
2013-08-18 14:51:00,71.0,69.0,30.14,WNW,300,0.0,1.0,94,0.10,,,0.39,weatherlink.com 1.10,2013-08-18 18:51:00,
2013-08-18 15:06:00,71.6,70.0,30.14,WNW,288,0.0,1.0,93,0.10,,,0.39,weatherlink.com 1.10,2013-08-18 19:06:00,
2013-08-18 15:21:00,72.1,70.0,30.13,WNW,288,0.0,0.0,93,0.10,,,0.39,weatherlink.com 1.10,2013-08-18 19:21:00,
2013-08-18 15:36:00,73.2,71.0,30.13,ENE,70,0.0,1.0,92,0.00,,,0.39,weatherlink.com 1.10,2013-08-18 19:36:00,
2013-08-18 15:51:00,74.2,71.0,30.12,ENE,70,0.0,0.0,89,0.00,,,0.39,weatherlink.com 1.10,2013-08-18 19:51:00,
2013-08-18 16:06:00,74.0,71.0,30.12,ENE,69,0.0,1.0,91,0.00,,,0.39,weatherlink.com 1.10,2013-08-18 20:06:00,
2013-08-18 16:21:00,73.4,71.0,30.12,ENE,69,0.0,1.0,92,0.00,,,0.39,weatherlink.com 1.10,2013-08-18 20:21:00,
2013-08-18 16:36:00,72.9,71.0,30.11,ENE,69,0.0,1.0,94,0.01,,,0.40,weatherlink.com 1.10,2013-08-18 20:36:00,
2013-08-18 16:51:00,73.0,71.0,30.11,ENE,69,0.0,0.0,94,0.01,,,0.40,weatherlink.com 1.10,2013-08-18 20:51:00,
2013-08-18 17:06:00,72.8,71.0,30.11,ENE,69,0.0,0.0,94,0.02,,,0.41,weatherlink.com 1.10,2013-08-18 21:06:00,
2013-08-18 17:21:00,72.1,71.0,30.11,ESE,121,0.0,1.0,95,0.11,,,0.50,weatherlink.com 1.10,2013-08-18 21:21:00,
2013-08-18 17:37:00,72.2,71.0,30.11,South,174,0.0,1.0,95,0.10,,,0.50,weatherlink.com 1.10,2013-08-18 21:37:00,
2013-08-18 17:51:00,72.4,71.0,30.11,South,170,0.0,0.0,95,0.10,,,0.50,weatherlink.com 1.10,2013-08-18 21:51:00,
2013-08-18 18:06:00,72.5,71.0,30.11,South,170,0.0,0.0,95,0.09,,,0.50,weatherlink.com 1.10,2013-08-18 22:06:00,
2013-08-18 18:21:00,72.2,71.0,30.11,South,170,0.0,0.0,95,0.00,,,0.50,weatherlink.com 1.10,2013-08-18 22:21:00,
2013-08-18 18:36:00,71.8,70.0,30.11,South,170,0.0,0.0,95,0.00,,,0.50,weatherlink.com 1.10,2013-08-18 22:36:00,
2013-08-18 18:51:00,71.5,70.0,30.11,South,169,0.0,0.0,96,0.00,,,0.50,weatherlink.com 1.10,2013-08-18 22:51:00,
2013-08-18 19:06:00,71.4,70.0,30.10,South,169,0.0,0.0,96,0.00,,,0.50,weatherlink.com 1.10,2013-08-18 23:06:00,
2013-08-18 19:21:00,71.3,70.0,30.10,South,169,0.0,0.0,96,0.00,,,0.50,weatherlink.com 1.10,2013-08-18 23:21:00,
2013-08-18 19:36:00,71.2,70.0,30.11,SSE,148,0.0,0.0,97,0.00,,,0.50,weatherlink.com 1.10,2013-08-18 23:36:00,
2013-08-18 19:51:00,71.1,70.0,30.11,SSE,148,0.0,0.0,97,0.00,,,0.50,weatherlink.com 1.10,2013-08-18 23:51:00,
2013-08-18 20:06:00,71.0,70.0,30.10,SE,134,0.0,0.0,97,0.00,,,0.50,weatherlink.com 1.10,2013-08-19 00:06:00,
2013-08-18 20:21:00,70.9,70.0,30.11,SE,130,0.0,1.0,97,0.00,,,0.50,weatherlink.com 1.10,2013-08-19 00:21:00,
2013-08-18 20:36:00,70.6,70.0,30.12,SE,130,0.0,1.0,97,0.00,,,0.50,weatherlink.com 1.10,2013-08-19 00:36:00,
2013-08-18 20:51:00,70.4,70.0,30.12,SE,129,0.0,0.0,97,0.00,,,0.50,weatherlink.com 1.10,2013-08-19 00:51:00,
2013-08-18 21:06:00,70.3,69.0,30.12,SE,129,0.0,1.0,97,0.00,,,0.50,weatherlink.com 1.10,2013-08-19 01:06:00,
2013-08-18 21:21:00,70.2,70.0,30.13,SE,129,0.0,1.0,98,0.00,,,0.50,weatherlink.com 1.10,2013-08-19 01:21:00,
2013-08-18 21:36:00,70.1,70.0,30.13,SE,129,0.0,0.0,98,0.00,,,0.50,weatherlink.com 1.10,2013-08-19 01:36:00,
2013-08-18 21:51:00,70.0,69.0,30.13,SE,128,0.0,0.0,98,0.00,,,0.50,weatherlink.com 1.10,2013-08-19 01:51:00,
2013-08-18 22:06:00,69.9,69.0,30.14,SE,129,0.0,1.0,98,0.00,,,0.50,weatherlink.com 1.10,2013-08-19 02:06:00,
2013-08-18 22:21:00,70.0,69.0,30.14,SE,128,0.0,0.0,98,0.00,,,0.50,weatherlink.com 1.10,2013-08-19 02:21:00,
2013-08-18 22:36:00,70.0,69.0,30.14,ESE,120,0.0,1.0,98,0.01,,,0.51,weatherlink.com 1.10,2013-08-19 02:36:00,
2013-08-18 22:51:00,69.8,69.0,30.14,ESE,120,0.0,0.0,98,0.01,,,0.51,weatherlink.com 1.10,2013-08-19 02:51:00,
2013-08-18 23:06:00,69.8,69.0,30.13,ESE,120,0.0,1.0,98,0.01,,,0.51,weatherlink.com 1.10,2013-08-19 03:06:00,
2013-08-18 23:21:00,69.7,69.0,30.13,ESE,119,0.0,0.0,98,0.01,,,0.51,weatherlink.com 1.10,2013-08-19 03:21:00,
2013-08-18 23:36:00,69.5,69.0,30.13,ESE,120,0.0,0.0,98,0.00,,,0.51,weatherlink.com 1.10,2013-08-19 03:36:00,
2013-08-18 23:51:00,69.4,69.0,30.13,ESE,120,0.0,0.0,98,0.00,,,0.51,weatherlink.com 1.10,2013-08-19 03:51:00,